createdAt,value
2018-06-25T00:01:18.693Z,17.90
2018-06-25T00:04:20.881Z,17.89
2018-06-25T00:07:22.921Z,17.96
2018-06-25T00:10:24.980Z,17.93
2018-06-25T00:13:27.028Z,17.89
2018-06-25T00:16:29.095Z,17.86
2018-06-25T00:19:31.028Z,17.77
2018-06-25T00:22:33.049Z,17.80
2018-06-25T00:25:35.221Z,17.81
2018-06-25T00:28:37.311Z,17.80
2018-06-25T00:31:39.321Z,17.85
2018-06-25T00:34:41.411Z,17.82
2018-06-25T00:37:44.731Z,17.76
2018-06-25T00:40:46.777Z,17.62
2018-06-25T00:43:48.967Z,17.60
2018-06-25T00:46:51.020Z,17.64
2018-06-25T00:49:53.128Z,17.60
2018-06-25T00:52:55.272Z,17.58
2018-06-25T00:55:57.325Z,17.59
2018-06-25T00:59:10.980Z,17.54
2018-06-25T01:02:13.990Z,17.47
2018-06-25T01:05:16.191Z,17.43
2018-06-25T01:08:18.283Z,17.44
2018-06-25T01:11:20.263Z,17.38
2018-06-25T01:14:22.349Z,17.42
2018-06-25T01:17:24.434Z,17.45
2018-06-25T01:20:26.485Z,17.44
2018-06-25T01:23:28.535Z,17.45
2018-06-25T01:26:30.799Z,17.43
2018-06-25T01:29:32.877Z,17.39
2018-06-25T01:32:34.923Z,17.37
2018-06-25T01:35:37.015Z,17.38
2018-06-25T01:38:39.083Z,17.37
2018-06-25T01:41:42.196Z,17.39
2018-06-25T01:44:45.474Z,17.26
2018-06-25T01:47:48.464Z,17.35
2018-06-25T01:50:51.547Z,17.33
2018-06-25T01:53:53.655Z,17.23
2018-06-25T01:56:55.698Z,17.33
2018-06-25T01:59:57.665Z,17.15
2018-06-25T02:02:59.742Z,17.13
2018-06-25T02:06:01.817Z,17.16
2018-06-25T02:09:06.910Z,17.21
2018-06-25T02:12:08.975Z,17.25
2018-06-25T02:15:10.952Z,17.27
2018-06-25T02:18:14.611Z,17.26
2018-06-25T02:21:16.658Z,17.23
2018-06-25T02:24:19.740Z,17.21
2018-06-25T02:27:21.795Z,17.22
2018-06-25T02:30:23.855Z,17.26
2018-06-25T02:33:25.908Z,17.25
2018-06-25T02:36:28.038Z,17.20
2018-06-25T02:39:31.104Z,17.17
2018-06-25T02:42:33.176Z,17.22
2018-06-25T02:45:35.239Z,17.26
2018-06-25T02:48:37.326Z,17.22
2018-06-25T02:51:39.408Z,17.17
2018-06-25T02:54:41.446Z,17.17
2018-06-25T02:57:44.645Z,17.14
2018-06-25T03:00:46.569Z,17.07
2018-06-25T03:03:48.696Z,16.91
2018-06-25T03:06:50.859Z,16.87
2018-06-25T03:09:52.942Z,16.82
2018-06-25T03:12:54.988Z,16.84
2018-06-25T03:15:57.187Z,16.81
2018-06-25T03:18:59.152Z,16.72
2018-06-25T03:22:01.192Z,16.66
2018-06-25T03:25:03.299Z,16.69
2018-06-25T03:28:05.349Z,16.68
2018-06-25T03:31:07.407Z,16.62
2018-06-25T03:34:09.514Z,16.53
2018-06-25T03:37:11.545Z,16.42
2018-06-25T03:40:15.876Z,16.47
2018-06-25T03:43:18.019Z,16.49
2018-06-25T03:46:20.068Z,16.45
2018-06-25T03:49:22.282Z,16.51
2018-06-25T03:52:24.305Z,16.56
2018-06-25T03:55:26.392Z,16.54
2018-06-25T03:58:28.493Z,16.52
2018-06-25T04:01:30.570Z,16.53
2018-06-25T04:04:32.593Z,16.52
2018-06-25T04:07:34.711Z,16.47
2018-06-25T04:10:36.750Z,16.52
2018-06-25T04:13:38.737Z,16.48
2018-06-25T04:16:40.751Z,16.54
2018-06-25T04:19:45.591Z,16.56
2018-06-25T04:22:47.848Z,16.54
2018-06-25T04:25:49.858Z,16.47
2018-06-25T04:28:57.216Z,16.47
2018-06-25T04:31:59.329Z,16.47
2018-06-25T04:35:01.393Z,16.45
2018-06-25T04:38:03.492Z,16.42
2018-06-25T04:41:05.706Z,16.47
2018-06-25T04:44:08.844Z,16.46
2018-06-25T04:47:10.868Z,16.56
2018-06-25T04:50:16.120Z,16.58
2018-06-25T04:53:18.222Z,16.56
2018-06-25T04:56:20.432Z,16.63
2018-06-25T04:59:22.542Z,16.48
2018-06-25T05:02:24.615Z,16.51
2018-06-25T05:05:29.104Z,16.60
2018-06-25T05:08:31.199Z,16.48
2018-06-25T05:11:33.255Z,16.54
2018-06-25T05:14:36.398Z,16.53
2018-06-25T05:17:38.460Z,16.64
2018-06-25T05:20:41.551Z,16.54
2018-06-25T05:23:43.636Z,16.60
2018-06-25T05:26:46.468Z,16.68
2018-06-25T05:29:48.534Z,16.72
2018-06-25T05:32:51.635Z,16.71
2018-06-25T05:35:53.816Z,16.77
2018-06-25T05:38:55.903Z,16.82
2018-06-25T05:41:57.999Z,16.83
2018-06-25T05:45:00.151Z,16.87
2018-06-25T05:48:02.322Z,16.96
2018-06-25T05:51:05.476Z,17.01
2018-06-25T05:54:07.484Z,17.06
2018-06-25T05:57:10.035Z,17.07
2018-06-25T06:00:12.024Z,17.10
2018-06-25T06:03:16.508Z,17.05
2018-06-25T06:06:18.493Z,17.12
2018-06-25T06:09:20.589Z,17.06
2018-06-25T06:12:22.719Z,17.00
2018-06-25T06:15:24.814Z,17.07
2018-06-25T06:18:26.903Z,17.14
2018-06-25T06:21:28.977Z,17.11
2018-06-25T06:24:31.367Z,17.02
2018-06-25T06:27:33.314Z,17.07
2018-06-25T06:30:35.384Z,17.13
2018-06-25T06:33:37.849Z,17.13
2018-06-25T06:36:40.083Z,17.18
2018-06-25T06:39:42.205Z,17.26
2018-06-25T06:42:46.353Z,17.22
2018-06-25T06:45:48.494Z,17.30
2018-06-25T06:48:50.654Z,17.34
2018-06-25T06:51:53.274Z,17.45
2018-06-25T06:54:55.300Z,17.35
2018-06-25T06:57:57.536Z,17.33
2018-06-25T07:00:59.527Z,17.38
2018-06-25T07:04:01.591Z,17.43
2018-06-25T07:07:04.003Z,17.45
2018-06-25T07:10:06.074Z,17.44
2018-06-25T07:13:08.147Z,17.43
2018-06-25T07:16:10.179Z,17.53
2018-06-25T07:19:12.264Z,17.66
2018-06-25T07:22:14.335Z,17.42
2018-06-25T07:25:17.643Z,17.50
2018-06-25T07:28:19.700Z,17.50
2018-06-25T07:31:28.636Z,17.56
2018-06-25T07:34:30.693Z,17.68
2018-06-25T07:37:32.737Z,17.80
2018-06-25T07:40:34.829Z,17.90
2018-06-25T07:43:36.883Z,17.93
2018-06-25T07:46:38.872Z,17.97
2018-06-25T07:49:40.943Z,18.11
2018-06-25T07:52:43.174Z,18.18
2018-06-25T07:55:46.132Z,18.32
2018-06-25T07:58:48.273Z,18.33
2018-06-25T08:01:50.492Z,18.42
2018-06-25T08:04:52.500Z,18.37
2018-06-25T08:07:54.579Z,18.53
2018-06-25T08:10:56.594Z,18.58
2018-06-25T08:13:58.706Z,18.62
2018-06-25T08:17:01.843Z,18.61
2018-06-25T08:20:04.935Z,18.51
2018-06-25T08:23:07.147Z,18.53
2018-06-25T08:26:09.207Z,18.50
2018-06-25T08:29:11.287Z,18.47
2018-06-25T08:32:13.376Z,18.47
2018-06-25T08:35:16.475Z,18.54
2018-06-25T08:38:18.524Z,18.78
2018-06-25T08:41:20.494Z,18.94
2018-06-25T08:44:22.548Z,19.28
2018-06-25T08:47:24.629Z,19.27
2018-06-25T08:50:33.171Z,19.29
2018-06-25T08:53:35.238Z,19.45
2018-06-25T08:56:37.311Z,19.52
2018-06-25T08:59:39.550Z,19.73
2018-06-25T09:02:41.527Z,19.80
2018-06-25T09:05:43.584Z,19.86
2018-06-25T09:08:46.787Z,19.80
2018-06-25T09:11:48.828Z,19.92
2018-06-25T09:14:51.102Z,19.98
2018-06-25T09:17:53.215Z,20.15
2018-06-25T09:20:55.259Z,20.13
2018-06-25T09:23:57.333Z,19.95
2018-06-25T09:26:59.403Z,20.28
2018-06-25T09:30:01.476Z,20.54
2018-06-25T09:33:03.558Z,20.74
2018-06-25T09:36:05.687Z,20.61
2018-06-25T09:39:09.595Z,20.65
2018-06-25T09:42:11.699Z,20.68
2018-06-25T09:45:13.784Z,20.56
2018-06-25T09:48:15.846Z,20.41
2018-06-25T09:51:18.118Z,20.47
2018-06-25T09:54:20.382Z,20.57
2018-06-25T09:57:22.522Z,20.88
2018-06-25T10:00:30.458Z,21.11
2018-06-25T10:03:32.597Z,20.62
2018-06-25T10:06:34.613Z,20.71
2018-06-25T10:09:36.779Z,20.76
2018-06-25T10:12:38.825Z,20.76
2018-06-25T10:15:40.908Z,20.72
2018-06-25T10:18:49.118Z,20.65
2018-06-25T10:21:51.201Z,20.91
2018-06-25T10:24:53.254Z,21.28
2018-06-25T10:27:56.375Z,21.21
2018-06-25T10:30:58.504Z,21.28
2018-06-25T10:34:00.508Z,21.36
2018-06-25T10:37:02.940Z,21.24
2018-06-25T10:40:04.978Z,21.13
2018-06-25T10:43:08.186Z,20.97
2018-06-25T10:46:10.313Z,21.01
2018-06-25T10:49:12.363Z,21.24
2018-06-25T10:52:14.346Z,21.49
2018-06-25T10:55:16.427Z,21.48
2018-06-25T10:58:19.623Z,21.49
2018-06-25T11:01:22.039Z,21.27
2018-06-25T11:04:24.139Z,21.12
2018-06-25T11:07:26.409Z,21.21
2018-06-25T11:10:28.327Z,21.24
2018-06-25T11:13:30.544Z,21.00
2018-06-25T11:16:33.578Z,21.04
2018-06-25T11:19:35.659Z,21.21
2018-06-25T11:22:37.802Z,21.43
2018-06-25T11:25:39.868Z,21.54
2018-06-25T11:28:41.939Z,21.65
2018-06-25T11:31:44.020Z,21.99
2018-06-25T11:34:46.083Z,22.47
2018-06-25T11:37:49.158Z,22.23
2018-06-25T11:40:51.240Z,22.27
2018-06-25T11:43:53.315Z,22.29
2018-06-25T11:46:55.366Z,22.04
2018-06-25T11:49:57.693Z,21.83
2018-06-25T11:52:59.683Z,21.83
2018-06-25T11:56:01.756Z,21.92
2018-06-25T11:59:04.404Z,21.93
2018-06-25T12:02:06.666Z,21.88
2018-06-25T12:05:08.697Z,22.00
2018-06-25T12:08:10.752Z,21.58
2018-06-25T12:11:12.891Z,21.72
2018-06-25T12:14:15.166Z,22.25
2018-06-25T12:17:18.179Z,22.19
2018-06-25T12:20:20.272Z,22.02
2018-06-25T12:23:22.356Z,21.91
2018-06-25T12:26:25.515Z,22.33
2018-06-25T12:29:27.590Z,22.42
2018-06-25T12:32:29.607Z,22.50
2018-06-25T12:35:31.646Z,22.49
2018-06-25T12:38:33.727Z,22.40
2018-06-25T12:41:36.886Z,22.43
2018-06-25T12:44:38.844Z,22.28
2018-06-25T12:47:40.935Z,22.13
2018-06-25T12:50:42.976Z,22.22
2018-06-25T12:53:45.118Z,22.47
2018-06-25T12:56:47.843Z,22.43
2018-06-25T12:59:50.869Z,22.53
2018-06-25T13:02:53.008Z,23.00
2018-06-25T13:05:56.199Z,23.42
2018-06-25T13:08:58.290Z,23.58
2018-06-25T13:12:01.384Z,23.13
2018-06-25T13:15:03.558Z,22.98
2018-06-25T13:18:05.533Z,22.79
2018-06-25T13:21:07.668Z,22.67
2018-06-25T13:24:09.758Z,22.56
2018-06-25T13:27:11.911Z,22.57
2018-06-25T13:30:14.923Z,22.51
2018-06-25T13:33:18.025Z,22.81
2018-06-25T13:36:20.103Z,23.43
2018-06-25T13:39:22.140Z,23.86
2018-06-25T13:42:24.220Z,23.56
2018-06-25T13:45:26.277Z,23.23
2018-06-25T13:48:28.465Z,23.05
2018-06-25T13:51:30.506Z,22.95
2018-06-25T13:54:32.592Z,22.86
2018-06-25T13:57:34.692Z,22.92
2018-06-25T14:00:38.844Z,23.46
2018-06-25T14:03:43.338Z,23.47
2018-06-25T14:06:45.380Z,23.17
2018-06-25T14:09:48.229Z,23.28
2018-06-25T14:12:50.347Z,23.69
2018-06-25T14:15:52.454Z,24.08
2018-06-25T14:18:54.606Z,24.52
2018-06-25T14:21:56.707Z,24.53
2018-06-25T14:24:59.792Z,24.42
2018-06-25T14:28:07.800Z,24.15
2018-06-25T14:31:16.986Z,23.88
2018-06-25T14:34:22.325Z,24.03
2018-06-25T14:37:24.817Z,23.99
2018-06-25T14:40:26.925Z,24.27
2018-06-25T14:43:29.261Z,24.50
2018-06-25T14:46:32.369Z,23.85
2018-06-25T14:49:34.408Z,23.79
2018-06-25T14:52:36.581Z,23.76
2018-06-25T14:55:38.642Z,24.03
2018-06-25T14:58:40.771Z,24.12
2018-06-25T15:01:43.512Z,24.43
2018-06-25T15:04:45.625Z,24.65
2018-06-25T15:07:48.675Z,24.60
2018-06-25T15:10:50.735Z,24.88
2018-06-25T15:13:54.831Z,25.06
2018-06-25T15:16:57.059Z,25.00
2018-06-25T15:19:59.258Z,25.12
2018-06-25T15:23:01.412Z,24.80
2018-06-25T15:26:03.626Z,24.66
2018-06-25T15:29:05.880Z,24.67
2018-06-25T15:32:07.970Z,24.69
2018-06-25T15:35:10.073Z,24.93
2018-06-25T15:38:13.708Z,24.84
2018-06-25T15:41:15.688Z,24.41
2018-06-25T15:44:17.976Z,24.39
2018-06-25T15:47:20.225Z,24.72
2018-06-25T15:50:22.422Z,24.45
2018-06-25T15:53:24.545Z,24.13
2018-06-25T15:56:26.745Z,24.14
2018-06-25T15:59:28.714Z,24.16
2018-06-25T16:02:31.074Z,24.03
2018-06-25T16:05:33.143Z,24.15
2018-06-25T16:08:35.467Z,24.27
2018-06-25T16:11:37.525Z,24.24
2018-06-25T16:14:39.903Z,24.28
2018-06-25T16:17:42.753Z,24.05
2018-06-25T16:20:45.262Z,24.21
2018-06-25T16:23:47.445Z,24.42
2018-06-25T16:26:49.572Z,24.52
2018-06-25T16:29:51.790Z,24.76
2018-06-25T16:32:53.859Z,24.47
2018-06-25T16:35:55.933Z,24.46
2018-06-25T16:38:58.014Z,24.48
2018-06-25T16:42:00.073Z,24.51
2018-06-25T16:45:02.353Z,24.52
2018-06-25T16:48:04.626Z,24.50
2018-06-25T16:51:06.712Z,24.58
2018-06-25T16:54:08.904Z,24.55
2018-06-25T16:57:10.994Z,24.50
2018-06-25T17:00:13.933Z,24.53
2018-06-25T17:03:16.105Z,24.46
2018-06-25T17:06:18.177Z,24.30
2018-06-25T17:09:21.242Z,24.49
2018-06-25T17:12:23.382Z,24.16
2018-06-25T17:15:26.464Z,24.07
2018-06-25T17:18:28.792Z,23.99
2018-06-25T17:21:30.854Z,23.97
2018-06-25T17:24:32.951Z,23.84
2018-06-25T17:27:35.152Z,23.83
2018-06-25T17:30:38.764Z,23.73
2018-06-25T17:33:40.739Z,23.72
2018-06-25T17:36:43.535Z,23.78
2018-06-25T17:39:45.729Z,23.77
2018-06-25T17:42:47.795Z,23.69
2018-06-25T17:45:49.908Z,23.75
2018-06-25T17:48:51.938Z,23.69
2018-06-25T17:51:53.991Z,23.63
2018-06-25T17:54:56.292Z,23.55
2018-06-25T17:57:58.756Z,23.45
2018-06-25T18:01:00.775Z,23.42
2018-06-25T18:04:02.954Z,23.42
2018-06-25T18:07:05.985Z,23.41
2018-06-25T18:10:08.173Z,23.50
2018-06-25T18:13:11.409Z,23.68
2018-06-25T18:16:14.119Z,23.60
2018-06-25T18:19:16.169Z,23.50
2018-06-25T18:22:18.256Z,23.45
2018-06-25T18:25:20.351Z,23.46
2018-06-25T18:28:22.479Z,23.41
2018-06-25T18:31:24.554Z,23.40
2018-06-25T18:34:26.699Z,23.45
2018-06-25T18:37:28.831Z,23.42
2018-06-25T18:40:30.888Z,23.43
2018-06-25T18:43:34.255Z,23.45
2018-06-25T18:46:36.533Z,23.44
2018-06-25T18:49:38.659Z,23.44
2018-06-25T18:52:40.879Z,23.36
2018-06-25T18:55:43.007Z,23.40
2018-06-25T18:58:46.187Z,23.34
2018-06-25T19:01:48.362Z,23.27
2018-06-25T19:04:50.434Z,23.23
2018-06-25T19:07:52.622Z,23.05
2018-06-25T19:10:54.812Z,22.96
2018-06-25T19:13:56.987Z,22.78
2018-06-25T19:16:59.178Z,22.71
2018-06-25T19:20:01.623Z,22.65
2018-06-25T19:23:05.872Z,22.57
2018-06-25T19:26:09.033Z,22.55
2018-06-25T19:29:12.088Z,22.51
2018-06-25T19:32:14.334Z,22.38
2018-06-25T19:35:16.436Z,22.35
2018-06-25T19:38:18.610Z,22.23
2018-06-25T19:41:21.723Z,22.17
2018-06-25T19:44:33.912Z,22.10
2018-06-25T19:47:36.011Z,22.08
2018-06-25T19:50:37.946Z,22.00
2018-06-25T19:53:39.994Z,21.93
2018-06-25T19:56:42.171Z,21.80
2018-06-25T19:59:44.346Z,21.72
2018-06-25T20:02:46.461Z,21.58
2018-06-25T20:05:48.641Z,21.47
2018-06-25T20:08:50.659Z,21.41
2018-06-25T20:11:53.733Z,21.35
2018-06-25T20:14:55.807Z,21.23
2018-06-25T20:17:57.883Z,21.16
2018-06-25T20:21:00.867Z,21.11
2018-06-25T20:24:03.501Z,21.07
2018-06-25T20:27:05.543Z,20.99
2018-06-25T20:30:08.055Z,20.90
2018-06-25T20:33:10.222Z,20.92
2018-06-25T20:36:14.310Z,20.91
2018-06-25T20:39:16.429Z,20.88
2018-06-25T20:42:18.503Z,20.83
2018-06-25T20:45:20.634Z,20.79
2018-06-25T20:48:22.802Z,20.71
2018-06-25T20:51:24.862Z,20.73
2018-06-25T20:54:27.135Z,20.73
2018-06-25T20:57:29.307Z,20.66
2018-06-25T21:00:31.698Z,20.57
2018-06-25T21:03:33.903Z,20.57
2018-06-25T21:06:35.962Z,20.56
2018-06-25T21:09:43.083Z,20.51
2018-06-25T21:12:45.071Z,20.43
2018-06-25T21:15:47.176Z,20.38
2018-06-25T21:18:49.213Z,20.30
2018-06-25T21:21:51.438Z,20.25
2018-06-25T21:24:53.634Z,20.14
2018-06-25T21:27:56.066Z,20.03
2018-06-25T21:30:58.119Z,19.98
2018-06-25T21:34:01.312Z,19.89
2018-06-25T21:37:05.098Z,19.82
2018-06-25T21:40:07.212Z,19.75
2018-06-25T21:43:09.289Z,19.73
2018-06-25T21:46:11.333Z,19.64
2018-06-25T21:49:13.539Z,19.57
2018-06-25T21:52:15.702Z,19.53
2018-06-25T21:55:17.844Z,19.53
2018-06-25T21:58:22.032Z,19.52
2018-06-25T22:01:23.948Z,19.50
2018-06-25T22:04:27.365Z,19.50
2018-06-25T22:07:29.369Z,19.50
2018-06-25T22:10:31.469Z,19.52
2018-06-25T22:13:34.429Z,19.50
2018-06-25T22:16:36.534Z,19.56
2018-06-25T22:19:38.593Z,19.52
2018-06-25T22:22:40.847Z,19.47
2018-06-25T22:25:42.921Z,19.52
2018-06-25T22:28:45.111Z,19.51
2018-06-25T22:31:47.076Z,19.58
2018-06-25T22:34:49.129Z,19.51
2018-06-25T22:37:51.820Z,19.54
2018-06-25T22:40:54.393Z,19.50
2018-06-25T22:44:08.907Z,19.39
2018-06-25T22:47:11.367Z,19.33
2018-06-25T22:50:13.862Z,19.22
2018-06-25T22:53:15.957Z,19.19
2018-06-25T22:56:18.094Z,19.22
2018-06-25T22:59:20.219Z,19.19
2018-06-25T23:02:22.235Z,19.11
2018-06-25T23:05:24.367Z,18.99
2018-06-25T23:08:26.452Z,18.93
2018-06-25T23:11:28.609Z,19.01
2018-06-25T23:14:30.650Z,19.09
2018-06-25T23:17:32.753Z,19.11
2018-06-25T23:20:35.579Z,19.06
2018-06-25T23:23:37.600Z,18.99
2018-06-25T23:26:39.759Z,18.99
2018-06-25T23:29:41.710Z,18.99
2018-06-25T23:32:43.848Z,18.95
2018-06-25T23:35:45.991Z,18.89
2018-06-25T23:38:48.058Z,18.84
2018-06-25T23:41:50.109Z,18.74
2018-06-25T23:44:54.227Z,18.61
2018-06-25T23:47:56.328Z,18.59
2018-06-25T23:51:00.435Z,18.51
2018-06-25T23:54:02.623Z,18.49
2018-06-25T23:57:04.958Z,18.44
